Time;durP1;ratioP1;P1;durP2;ratioP2;P2;SDS_P1;SDS_P2;PMS_P1;PMS_P2;Temp;Humidity;BMP_temperature;BMP_pressure;BME280_temperature;BME280_humidity;BME280_pressure;Samples;Min_cycle;Max_cycle;Signal;HPM_P1;HPM_P2
2022/01/19 00:00:58;;;;;;;57.65;31.40;;;1.60;99.90;;;;;;4952842;29;20065;-71
2022/01/19 00:03:25;;;;;;;48.33;24.17;;;1.70;99.90;;;;;;4952717;29;20482;-70
2022/01/19 00:05:51;;;;;;;49.10;25.30;;;1.70;99.90;;;;;;4954381;29;20240;-71
2022/01/19 00:08:20;;;;;;;44.95;25.90;;;1.70;99.90;;;;;;4954029;29;20378;-72
2022/01/19 00:10:48;;;;;;;46.90;25.77;;;1.60;99.90;;;;;;4954246;29;20031;-72
2022/01/19 00:13:15;;;;;;;41.42;24.02;;;1.60;99.90;;;;;;4936927;29;20375;-72
2022/01/19 00:15:42;;;;;;;63.15;26.45;;;1.60;99.90;;;;;;4954123;29;20023;-70
2022/01/19 00:18:07;;;;;;;48.85;26.42;;;1.60;99.90;;;;;;4952604;29;20039;-71
2022/01/19 00:20:35;;;;;;;54.25;26.65;;;1.60;99.90;;;;;;4954270;29;20034;-71
2022/01/19 00:23:03;;;;;;;49.05;26.85;;;1.60;99.90;;;;;;4936846;29;20023;-71
2022/01/19 00:25:30;;;;;;;69.70;33.45;;;1.70;99.90;;;;;;4953287;28;20070;-72
2022/01/19 00:27:57;;;;;;;58.00;28.05;;;1.70;99.90;;;;;;4952962;29;20039;-72
2022/01/19 00:30:23;;;;;;;49.55;24.85;;;1.70;99.90;;;;;;4952970;29;20033;-72
2022/01/19 00:32:50;;;;;;;45.20;26.02;;;1.70;99.90;;;;;;4937272;29;20093;-72
2022/01/19 00:35:16;;;;;;;45.90;24.85;;;1.70;99.90;;;;;;4954504;29;20031;-72
2022/01/19 00:37:42;;;;;;;51.40;23.40;;;1.60;99.90;;;;;;4953347;29;20106;-72
2022/01/19 00:40:12;;;;;;;49.08;24.63;;;1.70;99.90;;;;;;4953296;29;20039;-71
2022/01/19 00:42:38;;;;;;;50.05;22.42;;;1.60;99.90;;;;;;4954279;29;20675;-73
2022/01/19 00:45:06;;;;;;;44.58;23.63;;;1.60;99.90;;;;;;4954459;29;20030;-72
2022/01/19 00:47:33;;;;;;;37.88;19.98;;;1.60;99.90;;;;;;4953231;29;20091;-73
2022/01/19 00:49:59;;;;;;;45.53;22.17;;;1.60;99.90;;;;;;4954143;29;20026;-72
2022/01/19 00:52:26;;;;;;;36.45;17.40;;;1.50;99.90;;;;;;4952899;29;20481;-72
2022/01/19 00:54:52;;;;;;;29.42;16.45;;;1.60;99.90;;;;;;4937262;29;20438;-70
2022/01/19 00:57:18;;;;;;;35.70;16.98;;;1.60;99.90;;;;;;4954097;29;20023;-72
2022/01/19 00:59:48;;;;;;;29.88;17.20;;;1.50;99.90;;;;;;4952924;29;20035;-70
2022/01/19 01:02:14;;;;;;;38.72;18.90;;;1.60;99.90;;;;;;4954262;29;20028;-71
2022/01/19 01:04:40;;;;;;;35.45;20.25;;;1.50;99.90;;;;;;4952798;29;20031;-71
2022/01/19 01:07:06;;;;;;;39.42;19.10;;;1.50;99.90;;;;;;4953025;29;20023;-72
2022/01/19 01:09:32;;;;;;;43.08;23.80;;;1.50;99.90;;;;;;4954151;29;20024;-72
2022/01/19 01:12:01;;;;;;;42.67;24.10;;;1.50;99.90;;;;;;4955548;29;20074;-72
2022/01/19 01:20:20;;;;;;;38.35;22.83;;;1.20;99.90;;;;;;4875980;29;20029;-72
2022/01/19 01:22:47;;;;;;;45.35;23.98;;;1.20;99.90;;;;;;4860565;29;20834;-73
2022/01/19 01:25:13;;;;;;;49.80;24.20;;;1.10;99.90;;;;;;4876135;29;20029;-72
2022/01/19 01:27:39;;;;;;;46.67;24.00;;;1.00;99.90;;;;;;4875688;29;20040;-71
2022/01/19 01:30:08;;;;;;;43.20;20.77;;;0.90;99.90;;;;;;4875336;29;20041;-72
2022/01/19 01:32:34;;;;;;;38.65;18.88;;;0.90;99.90;;;;;;4860460;29;20061;-71
2022/01/19 01:35:01;;;;;;;32.25;18.58;;;0.90;99.90;;;;;;4875920;29;20045;-71
2022/01/19 01:37:27;;;;;;;31.67;16.88;;;0.90;99.90;;;;;;4875704;29;20503;-72
2022/01/19 01:39:54;;;;;;;36.30;19.90;;;0.90;99.90;;;;;;4879401;29;20060;-73
2022/01/19 01:42:21;;;;;;;42.17;21.13;;;0.80;99.90;;;;;;4879071;29;20172;-71
2022/01/19 01:44:51;;;;;;;37.95;21.75;;;0.90;99.90;;;;;;4879326;29;20033;-71
2022/01/19 01:47:21;;;;;;;46.70;26.10;;;0.90;99.90;;;;;;4884918;29;20063;-72
2022/01/19 01:55:20;;;;;;;43.75;21.73;;;0.80;99.90;;;;;;4955982;29;20036;-73
2022/01/19 01:57:47;;;;;;;37.25;20.67;;;0.70;99.90;;;;;;4956853;29;20059;-72
2022/01/19 02:00:20;;;;;;;41.47;22.05;;;0.60;99.90;;;;;;4955470;29;20553;-71
2022/01/19 02:02:49;;;;;;;41.50;21.73;;;0.50;99.90;;;;;;4957401;29;20039;-71
2022/01/19 02:05:21;;;;;;;39.78;22.70;;;0.50;99.90;;;;;;4939906;29;20273;-71
2022/01/19 02:21:58;;;;;;;48.10;24.10;;;0.00;99.90;;;;;;4955590;29;20133;-72
2022/01/19 02:24:32;;;;;;;43.92;22.42;;;-0.10;99.90;;;;;;4956714;29;20039;-72
2022/01/19 02:40:28;;;;;;;43.25;23.35;;;-0.20;99.90;;;;;;4878522;29;20519;-71
2022/01/19 02:50:40;;;;;;;44.33;22.08;;;-0.30;99.90;;;;;;4896772;29;20364;-72
2022/01/19 02:53:06;;;;;;;46.17;23.42;;;-0.30;99.90;;;;;;4876920;29;20067;-72
2022/01/19 02:55:35;;;;;;;48.35;22.60;;;-0.30;99.90;;;;;;4859854;29;20034;-71
2022/01/19 02:58:01;;;;;;;40.03;21.33;;;-0.30;99.90;;;;;;4859200;29;20082;-73
2022/01/19 03:08:46;;;;;;;29.98;18.48;;;-0.40;99.90;;;;;;4859189;29;20503;-71
2022/01/19 03:11:18;;;;;;;33.17;19.17;;;-0.40;99.90;;;;;;4859192;29;20037;-71
2022/01/19 03:13:46;;;;;;;37.13;19.58;;;-0.40;99.90;;;;;;4899190;29;20402;-70
2022/01/19 03:16:13;;;;;;;32.55;17.58;;;-0.50;99.90;;;;;;4919545;29;20031;-72
2022/01/19 03:18:39;;;;;;;38.13;17.48;;;-0.40;99.90;;;;;;4919673;29;20032;-70
2022/01/19 03:21:06;;;;;;;34.50;18.70;;;-0.40;99.90;;;;;;4936490;29;20419;-71
2022/01/19 03:23:33;;;;;;;33.13;17.77;;;-0.40;99.90;;;;;;4919322;29;20192;-71
2022/01/19 03:26:05;;;;;;;32.63;16.95;;;-0.40;99.90;;;;;;4919383;29;20027;-70
2022/01/19 03:28:31;;;;;;;33.38;18.23;;;-0.40;99.90;;;;;;4919343;29;20028;-71
2022/01/19 03:31:00;;;;;;;29.20;18.17;;;-0.40;99.90;;;;;;4936095;29;20359;-72
2022/01/19 03:33:29;;;;;;;35.50;16.25;;;-0.40;99.90;;;;;;4934985;29;20039;-72
2022/01/19 03:35:56;;;;;;;34.80;18.63;;;-0.40;99.90;;;;;;4918821;29;20122;-71
2022/01/19 03:38:23;;;;;;;33.33;16.05;;;-0.40;99.90;;;;;;4918649;29;20051;-72
2022/01/19 03:40:49;;;;;;;26.55;16.13;;;-0.40;99.90;;;;;;4919261;29;20030;-72
2022/01/19 03:43:15;;;;;;;31.77;15.85;;;-0.40;99.90;;;;;;4919019;29;20028;-72
2022/01/19 03:45:58;;;;;;;30.45;15.23;;;-0.40;99.90;;;;;;4919109;29;20034;-72
2022/01/19 03:48:38;;;;;;;34.85;14.75;;;-0.40;99.90;;;;;;4935958;29;20023;-71
2022/01/19 03:51:05;;;;;;;24.55;15.63;;;-0.40;99.90;;;;;;4935808;29;20434;-72
2022/01/19 03:53:32;;;;;;;30.42;16.98;;;-0.40;99.90;;;;;;4934567;29;20027;-72
2022/01/19 03:55:57;;;;;;;36.75;16.60;;;-0.40;99.90;;;;;;4918751;29;20036;-71
2022/01/19 03:58:24;;;;;;;30.38;16.50;;;-0.40;99.90;;;;;;4934355;29;20115;-72
2022/01/19 04:00:55;;;;;;;28.40;16.23;;;-0.40;99.90;;;;;;4917326;29;20661;-72
2022/01/19 04:03:29;;;;;;;34.28;16.08;;;-0.40;99.90;;;;;;4935922;29;20467;-72
2022/01/19 04:06:01;;;;;;;30.48;15.93;;;-0.50;99.90;;;;;;4935632;29;20028;-71
2022/01/19 04:08:28;;;;;;;37.58;17.35;;;-0.40;99.90;;;;;;4935696;29;20059;-71
2022/01/19 04:10:54;;;;;;;33.33;16.58;;;-0.40;99.90;;;;;;4935746;29;20016;-71
2022/01/19 04:15:55;;;;;;;36.90;19.83;;;-0.50;99.90;;;;;;4924045;29;20027;-70
2022/01/19 04:18:21;;;;;;;33.25;17.63;;;-0.40;99.90;;;;;;4937128;29;20031;-70
2022/01/19 04:20:52;;;;;;;32.17;16.67;;;-0.50;99.90;;;;;;4953562;29;20067;-70
2022/01/19 04:23:21;;;;;;;41.33;19.08;;;-0.50;99.90;;;;;;4937381;29;20034;-70
2022/01/19 04:25:47;;;;;;;33.25;18.90;;;-0.50;99.90;;;;;;4952979;29;20114;-71
2022/01/19 04:28:14;;;;;;;43.42;21.50;;;-0.50;99.90;;;;;;4953813;29;20032;-72
2022/01/19 04:30:44;;;;;;;47.83;23.25;;;-0.50;99.90;;;;;;4952877;29;20490;-71
2022/01/19 04:33:18;;;;;;;43.72;22.13;;;-0.50;99.90;;;;;;4953211;29;20035;-71
2022/01/19 04:35:53;;;;;;;42.78;22.33;;;-0.40;99.90;;;;;;4952992;29;20501;-72
2022/01/19 05:03:12;;;;;;;54.50;34.88;;;-0.60;99.90;;;;;;4933147;29;20394;-71
2022/01/19 05:05:49;;;;;;;40.85;27.38;;;-0.60;99.90;;;;;;4934554;29;20498;-70
2022/01/19 05:13:39;;;;;;;46.10;24.50;;;-0.60;99.90;;;;;;4932344;29;20027;-71
2022/01/19 05:16:05;;;;;;;41.80;24.95;;;-0.60;99.90;;;;;;4932541;29;20044;-71
2022/01/19 05:18:32;;;;;;;43.83;25.17;;;-0.60;99.90;;;;;;4932696;29;20046;-72
2022/01/19 05:20:58;;;;;;;86.47;49.97;;;-0.60;99.90;;;;;;4934541;29;20027;-71
2022/01/19 05:23:51;;;;;;;106.10;54.10;;;-0.60;99.90;;;;;;4932389;29;20062;-71
2022/01/19 05:26:17;;;;;;;79.70;38.42;;;-0.60;99.90;;;;;;4917469;29;20430;-72
2022/01/19 05:28:44;;;;;;;119.25;56.13;;;-0.70;99.90;;;;;;4917353;29;20031;-70
2022/01/19 05:31:09;;;;;;;257.15;121.95;;;-0.70;99.90;;;;;;4933127;29;20051;-72
2022/01/19 05:33:36;;;;;;;319.73;150.00;;;-0.70;99.90;;;;;;4917087;29;20058;-72
2022/01/19 05:36:03;;;;;;;288.55;146.85;;;-0.70;99.90;;;;;;4933176;29;20024;-73
2022/01/19 05:38:39;;;;;;;216.32;114.63;;;-0.60;99.90;;;;;;4917175;29;20479;-73
2022/01/19 05:41:14;;;;;;;101.47;55.67;;;-0.60;99.90;;;;;;4933317;29;20043;-72
2022/01/19 05:43:42;;;;;;;95.53;52.13;;;-0.70;99.90;;;;;;4932987;29;20521;-73
2022/01/19 05:46:08;;;;;;;79.03;44.47;;;-0.70;99.90;;;;;;4917143;29;20479;-73
2022/01/19 05:48:36;;;;;;;69.75;40.55;;;-0.70;99.90;;;;;;4933571;29;20517;-72
2022/01/19 05:51:01;;;;;;;76.57;43.10;;;-0.60;99.90;;;;;;4933030;29;20051;-73
2022/01/19 05:53:33;;;;;;;53.70;34.50;;;-0.60;99.90;;;;;;4934395;29;20023;-74
2022/01/19 05:56:02;;;;;;;62.97;35.27;;;-0.80;99.90;;;;;;4932781;29;20455;-73
2022/01/19 05:58:33;;;;;;;84.32;51.22;;;-0.80;99.90;;;;;;4957381;29;20134;-73
2022/01/19 06:01:00;;;;;;;84.03;51.45;;;-0.70;99.90;;;;;;4951689;29;20038;-73
2022/01/19 06:03:26;;;;;;;86.95;50.10;;;-0.70;99.90;;;;;;4958721;29;20039;-72
2022/01/19 06:06:04;;;;;;;104.50;60.40;;;-0.80;99.90;;;;;;4952121;29;20456;-72
2022/01/19 06:08:42;;;;;;;77.28;47.17;;;-0.80;99.90;;;;;;4951900;29;20035;-72
2022/01/19 06:11:09;;;;;;;94.03;49.20;;;-0.90;99.90;;;;;;4951806;29;20035;-73
2022/01/19 06:13:36;;;;;;;93.10;49.00;;;-0.90;99.90;;;;;;4952017;29;20051;-72
2022/01/19 06:16:03;;;;;;;106.95;65.03;;;-0.80;99.90;;;;;;4960222;29;20032;-73
2022/01/19 06:18:30;;;;;;;102.95;61.47;;;-0.90;99.90;;;;;;4954528;29;20035;-72
2022/01/19 06:20:56;;;;;;;99.50;58.40;;;-0.90;99.90;;;;;;4952672;29;20645;-73
2022/01/19 06:23:34;;;;;;;95.80;56.28;;;-0.80;99.90;;;;;;4936014;29;20153;-73
2022/01/19 06:26:06;;;;;;;112.70;63.83;;;-0.90;99.90;;;;;;4955118;29;20385;-72
2022/01/19 06:28:32;;;;;;;102.22;64.32;;;-0.90;99.90;;;;;;4955396;29;20063;-71
2022/01/19 06:30:59;;;;;;;158.73;83.38;;;-0.90;99.90;;;;;;4939243;29;20039;-73
2022/01/19 06:33:25;;;;;;;169.07;97.03;;;-0.90;99.90;;;;;;4955201;29;20463;-74
2022/01/19 06:35:55;;;;;;;179.35;100.68;;;-0.80;99.90;;;;;;4968617;29;20470;-73
2022/01/19 06:38:40;;;;;;;355.67;173.07;;;-0.70;99.90;;;;;;4955339;29;20476;-72
2022/01/19 06:41:14;;;;;;;492.20;252.80;;;-0.60;99.90;;;;;;4958736;29;20027;-73
2022/01/19 06:43:41;;;;;;;413.40;212.70;;;-0.60;99.90;;;;;;4969009;29;20117;-73
2022/01/19 06:46:08;;;;;;;275.90;150.88;;;-0.60;99.90;;;;;;4954694;29;20027;-73
2022/01/19 06:48:35;;;;;;;150.80;86.30;;;-0.50;99.90;;;;;;4955134;29;20122;-71
2022/01/19 06:51:10;;;;;;;131.43;79.03;;;-0.40;99.90;;;;;;4968711;29;20714;-75
2022/01/19 06:53:44;;;;;;;118.90;66.97;;;-0.30;99.90;;;;;;4935723;29;20708;-72
2022/01/19 06:56:23;;;;;;;117.63;72.40;;;-0.30;99.90;;;;;;4955727;29;20544;-73
2022/01/19 06:58:57;;;;;;;131.73;78.97;;;-0.10;99.90;;;;;;4938677;29;20418;-71
2022/01/19 07:01:33;;;;;;;123.72;69.50;;;-0.10;99.90;;;;;;4956269;29;20031;-73
2022/01/19 07:04:25;;;;;;;144.63;75.50;;;0.00;99.90;;;;;;4954558;29;20417;-72
2022/01/19 07:06:51;;;;;;;111.25;68.30;;;0.10;99.90;;;;;;4954529;29;20138;-73
2022/01/19 07:09:20;;;;;;;109.60;68.97;;;0.30;99.90;;;;;;4938414;29;20110;-73
2022/01/19 07:11:51;;;;;;;107.78;64.53;;;0.40;99.90;;;;;;4954619;29;20556;-74
2022/01/19 07:14:17;;;;;;;86.78;58.40;;;0.60;99.90;;;;;;4955817;29;20035;-73
2022/01/19 07:16:45;;;;;;;90.88;58.35;;;0.70;99.90;;;;;;4954432;29;20097;-72
2022/01/19 07:19:17;;;;;;;103.07;61.60;;;0.80;99.90;;;;;;4938667;29;20449;-74
2022/01/19 07:21:46;;;;;;;115.35;67.70;;;0.80;99.90;;;;;;4939007;29;20434;-72
2022/01/19 07:24:18;;;;;;;110.53;68.75;;;0.80;99.90;;;;;;4964271;29;20074;-74
2022/01/19 07:26:44;;;;;;;99.65;60.35;;;1.00;99.90;;;;;;4957753;29;20389;-73
2022/01/19 07:29:13;;;;;;;100.13;58.30;;;1.10;99.90;;;;;;4954120;29;20038;-74
2022/01/19 07:31:42;;;;;;;92.45;53.97;;;1.20;99.90;;;;;;4954177;29;20031;-73
2022/01/19 07:34:09;;;;;;;92.43;52.53;;;1.40;99.90;;;;;;4954105;29;20096;-73
2022/01/19 07:36:36;;;;;;;64.63;42.25;;;1.40;99.90;;;;;;4953172;28;20042;-73
2022/01/19 07:39:03;;;;;;;67.85;37.28;;;1.50;99.90;;;;;;4953877;29;20089;-74
2022/01/19 07:41:30;;;;;;;68.45;35.60;;;1.50;99.90;;;;;;4953789;29;20114;-74
2022/01/19 07:43:58;;;;;;;68.88;34.60;;;1.50;99.90;;;;;;4954029;29;20023;-73
2022/01/19 07:46:24;;;;;;;73.50;40.22;;;1.70;99.90;;;;;;4956245;29;20047;-73
2022/01/19 07:49:02;;;;;;;56.53;31.77;;;1.70;99.90;;;;;;4954847;29;20023;-74
2022/01/19 07:51:32;;;;;;;59.63;31.50;;;1.80;99.90;;;;;;4953991;29;20489;-74
2022/01/19 07:54:23;;;;;;;62.42;25.92;;;1.80;99.90;;;;;;4953767;29;20070;-74
2022/01/19 07:57:12;;;;;;;42.90;25.80;;;2.00;99.90;;;;;;4953636;28;20126;-74
2022/01/19 07:59:58;;;;;;;50.42;24.35;;;2.10;99.90;;;;;;4894938;29;20056;-73
2022/01/19 08:02:45;;;;;;;47.60;27.23;;;2.20;99.90;;;;;;4908600;29;20037;-73
2022/01/19 08:05:26;;;;;;;48.03;27.02;;;2.20;99.90;;;;;;4910225;29;20079;-75
2022/01/19 08:07:54;;;;;;;45.47;25.00;;;2.20;99.90;;;;;;4903194;29;20028;-73
2022/01/19 08:10:21;;;;;;;52.95;26.50;;;2.30;99.90;;;;;;4886606;29;20069;-73
2022/01/19 08:12:51;;;;;;;46.83;27.95;;;2.30;99.90;;;;;;4879429;29;20028;-73
2022/01/19 08:15:17;;;;;;;49.72;26.13;;;2.30;99.90;;;;;;4894556;29;20041;-74
2022/01/19 08:17:44;;;;;;;56.22;29.33;;;2.50;99.90;;;;;;4879103;29;20060;-73
2022/01/19 08:20:11;;;;;;;49.90;26.38;;;2.50;99.90;;;;;;4879537;29;20024;-73
2022/01/19 08:22:37;;;;;;;46.92;24.38;;;2.60;99.90;;;;;;4877964;29;20486;-73
2022/01/19 08:25:19;;;;;;;41.03;22.35;;;2.70;99.90;;;;;;4878829;29;20100;-74
2022/01/19 08:27:45;;;;;;;51.20;21.00;;;2.80;99.90;;;;;;4894782;29;20025;-73
2022/01/19 08:30:13;;;;;;;34.50;19.15;;;2.90;99.90;;;;;;4889476;29;20115;-73
2022/01/19 08:32:41;;;;;;;33.90;18.20;;;2.90;99.90;;;;;;4879053;29;20032;-72
2022/01/19 08:35:12;;;;;;;35.10;19.52;;;2.80;99.90;;;;;;4907872;29;20024;-73
2022/01/19 08:38:18;;;;;;;28.73;17.02;;;3.00;99.90;;;;;;4954021;29;20079;-73
2022/01/19 08:40:55;;;;;;;32.83;15.27;;;3.10;99.90;;;;;;4965275;29;20031;-74
2022/01/19 08:43:26;;;;;;;34.85;16.52;;;3.20;99.90;;;;;;4954733;29;20039;-72
2022/01/19 08:45:53;;;;;;;32.58;16.63;;;3.20;99.90;;;;;;4952798;29;20023;-72
2022/01/19 08:48:23;;;;;;;40.45;19.35;;;3.20;99.90;;;;;;4952482;28;20118;-73
2022/01/19 08:50:52;;;;;;;31.20;17.05;;;3.10;99.90;;;;;;4936557;29;20031;-72
2022/01/19 08:53:35;;;;;;;34.35;16.98;;;3.30;99.90;;;;;;4936864;29;20474;-73
2022/01/19 08:56:21;;;;;;;35.75;18.73;;;3.50;99.90;;;;;;4952562;29;20428;-72
2022/01/19 08:58:48;;;;;;;42.95;20.38;;;3.60;99.90;;;;;;4953263;29;20470;-72
2022/01/19 09:01:15;;;;;;;37.03;19.35;;;3.70;99.90;;;;;;4952408;29;20070;-71
2022/01/19 09:03:42;;;;;;;33.50;18.23;;;3.80;99.90;;;;;;4964727;29;20042;-72
2022/01/19 09:06:08;;;;;;;33.17;16.83;;;3.90;99.90;;;;;;4967115;29;20390;-74
2022/01/19 09:08:35;;;;;;;27.88;14.77;;;3.90;99.90;;;;;;4962663;29;20067;-73
2022/01/19 09:11:05;;;;;;;31.40;14.48;;;4.10;99.90;;;;;;4942103;29;20035;-73
2022/01/19 09:13:32;;;;;;;25.73;12.50;;;4.10;99.90;;;;;;4952492;29;20034;-72
2022/01/19 09:15:58;;;;;;;31.05;16.42;;;4.20;99.90;;;;;;4936406;29;20031;-72
2022/01/19 09:18:24;;;;;;;37.70;16.38;;;4.20;99.90;;;;;;4953571;29;20043;-73
2022/01/19 09:20:51;;;;;;;34.88;14.98;;;4.10;99.90;;;;;;4953721;29;20071;-74
2022/01/19 09:23:17;;;;;;;30.23;13.77;;;4.30;99.90;;;;;;4936647;29;20086;-71
2022/01/19 09:25:44;;;;;;;24.08;11.57;;;4.40;99.90;;;;;;4968769;29;20054;-73
2022/01/19 09:28:11;;;;;;;21.75;9.07;;;4.40;98.60;;;;;;4952095;29;20050;-73
2022/01/19 09:30:40;;;;;;;20.10;9.13;;;4.50;98.00;;;;;;4953872;29;20032;-73
2022/01/19 09:33:07;;;;;;;27.20;9.15;;;4.50;95.60;;;;;;4953389;29;20031;-73
2022/01/19 09:38:23;;;;;;;21.70;9.35;;;4.50;94.30;;;;;;4952109;29;20075;-72
2022/01/19 09:40:49;;;;;;;22.33;10.82;;;4.30;94.60;;;;;;4963752;29;20016;-73
2022/01/19 09:43:18;;;;;;;31.58;12.40;;;4.40;96.00;;;;;;4951906;29;20046;-71
2022/01/19 09:45:44;;;;;;;21.60;9.65;;;4.50;97.50;;;;;;4966151;29;20022;-73
2022/01/19 09:48:12;;;;;;;20.90;9.55;;;4.40;96.00;;;;;;4957995;29;20027;-71
2022/01/19 09:50:38;;;;;;;23.75;10.70;;;4.40;95.30;;;;;;4953466;29;20039;-71
2022/01/19 09:53:06;;;;;;;24.45;9.48;;;4.50;95.30;;;;;;4953760;29;20033;-72
2022/01/19 09:55:32;;;;;;;26.63;9.07;;;4.60;95.50;;;;;;4953636;29;20027;-72
2022/01/19 09:57:58;;;;;;;21.17;8.48;;;4.80;95.80;;;;;;4954429;28;20079;-73
2022/01/19 10:00:25;;;;;;;24.25;9.90;;;4.80;94.70;;;;;;4956269;29;20051;-72
2022/01/19 10:03:15;;;;;;;24.27;10.63;;;4.90;94.10;;;;;;4956712;29;20492;-73
2022/01/19 10:06:07;;;;;;;22.08;9.23;;;4.80;94.50;;;;;;4939369;29;20050;-72
2022/01/19 10:08:41;;;;;;;21.00;8.10;;;5.00;94.80;;;;;;4957768;29;20358;-73
2022/01/19 10:11:28;;;;;;;20.67;9.00;;;5.20;94.10;;;;;;4955696;29;20147;-73
2022/01/19 10:16:59;;;;;;;19.27;8.90;;;5.40;92.70;;;;;;4956614;29;20027;-72
2022/01/19 10:19:50;;;;;;;18.20;8.63;;;5.40;93.10;;;;;;4956344;29;20441;-72
2022/01/19 10:22:17;;;;;;;26.63;8.90;;;5.40;92.20;;;;;;4956056;29;20023;-73
2022/01/19 10:25:01;;;;;;;16.42;8.98;;;5.50;92.60;;;;;;4956489;29;20054;-72
2022/01/19 10:27:38;;;;;;;21.38;9.30;;;5.60;93.10;;;;;;4956154;29;20042;-72
2022/01/19 10:30:04;;;;;;;17.88;6.38;;;5.70;92.00;;;;;;4939106;29;20486;-72
2022/01/19 10:32:35;;;;;;;19.20;8.82;;;5.70;91.50;;;;;;4965952;29;20074;-72
2022/01/19 10:35:24;;;;;;;22.98;8.55;;;5.80;91.40;;;;;;4967516;29;20020;-73
2022/01/19 10:38:11;;;;;;;20.50;8.10;;;5.90;90.90;;;;;;4967141;29;20069;-72
2022/01/19 10:40:39;;;;;;;24.23;9.57;;;5.70;91.00;;;;;;4939168;29;20063;-73
2022/01/19 10:43:25;;;;;;;25.92;7.68;;;5.60;91.40;;;;;;4957449;29;20019;-72
2022/01/19 10:45:51;;;;;;;19.92;7.57;;;5.80;91.80;;;;;;4956476;29;20114;-72
2022/01/19 10:48:37;;;;;;;22.77;9.52;;;5.80;91.70;;;;;;4963785;29;20063;-73
2022/01/19 10:51:21;;;;;;;19.38;8.98;;;5.90;92.80;;;;;;4956747;29;20046;-72
2022/01/19 10:54:08;;;;;;;22.83;9.25;;;5.90;91.60;;;;;;4963869;29;20515;-72
2022/01/19 10:56:35;;;;;;;19.63;8.80;;;5.80;91.40;;;;;;4940255;29;20023;-73
2022/01/19 10:59:04;;;;;;;19.40;8.55;;;5.70;92.20;;;;;;4955570;29;20087;-71
2022/01/19 11:01:55;;;;;;;21.20;8.18;;;5.80;91.90;;;;;;4955870;29;20027;-72
2022/01/19 11:04:37;;;;;;;26.85;9.48;;;5.60;92.20;;;;;;4954444;29;20468;-72
2022/01/19 11:07:15;;;;;;;21.63;9.20;;;5.70;93.80;;;;;;4967739;29;20051;-73
2022/01/19 11:09:46;;;;;;;20.88;8.38;;;5.70;92.30;;;;;;4948666;28;20543;-73
2022/01/19 11:12:21;;;;;;;21.45;8.02;;;5.70;92.70;;;;;;4965037;29;20135;-73
2022/01/19 11:14:52;;;;;;;26.13;12.90;;;5.70;92.90;;;;;;4947099;29;20493;-73
2022/01/19 11:17:22;;;;;;;19.92;9.13;;;5.90;92.90;;;;;;4950527;29;20051;-72
2022/01/19 11:19:53;;;;;;;25.15;11.13;;;5.90;92.90;;;;;;4949079;29;20062;-74
2022/01/19 11:22:38;;;;;;;24.20;10.02;;;5.80;92.90;;;;;;4964620;29;20540;-73
2022/01/19 11:25:07;;;;;;;20.52;9.23;;;5.90;92.80;;;;;;4953600;29;20042;-71
2022/01/19 11:27:44;;;;;;;18.27;8.43;;;6.10;95.00;;;;;;4954635;29;20027;-72
2022/01/19 11:30:31;;;;;;;18.90;7.00;;;6.10;91.80;;;;;;4963125;29;20128;-73
2022/01/19 11:33:16;;;;;;;24.38;8.30;;;5.90;92.70;;;;;;4950408;29;20422;-73
2022/01/19 11:35:47;;;;;;;17.67;6.82;;;5.90;92.50;;;;;;4958071;29;20079;-73
2022/01/19 11:38:41;;;;;;;13.70;6.53;;;5.90;93.10;;;;;;4954473;29;20094;-72
2022/01/19 11:41:07;;;;;;;9.93;4.68;;;5.90;91.60;;;;;;4948244;29;20118;-73
2022/01/19 11:43:35;;;;;;;19.95;6.40;;;6.00;91.50;;;;;;4956117;29;20110;-72
2022/01/19 11:46:03;;;;;;;16.73;6.30;;;6.00;90.80;;;;;;4954227;29;20114;-71
2022/01/19 11:48:36;;;;;;;12.52;6.70;;;5.80;90.80;;;;;;4954550;29;20035;-73
2022/01/19 11:51:26;;;;;;;18.20;7.50;;;5.80;91.80;;;;;;4954308;29;20082;-71
2022/01/19 11:54:06;;;;;;;18.70;6.75;;;5.80;92.30;;;;;;4966406;29;20027;-73
2022/01/19 11:56:53;;;;;;;18.85;6.97;;;6.00;92.30;;;;;;4960230;29;20192;-73
2022/01/19 11:59:20;;;;;;;20.70;5.97;;;6.00;91.70;;;;;;4953666;29;20453;-72
2022/01/19 12:01:46;;;;;;;12.48;6.32;;;6.10;90.10;;;;;;4958262;29;20073;-72
2022/01/19 12:04:17;;;;;;;21.98;8.35;;;6.10;90.40;;;;;;4954619;29;20069;-73
2022/01/19 12:06:51;;;;;;;13.43;6.03;;;6.20;90.40;;;;;;4949985;29;20035;-73
2022/01/19 12:09:17;;;;;;;12.68;5.65;;;6.20;90.00;;;;;;4959489;29;20513;-71
2022/01/19 12:11:53;;;;;;;11.85;5.88;;;6.10;90.50;;;;;;4954532;29;20027;-73
2022/01/19 12:14:36;;;;;;;12.65;5.75;;;6.20;89.60;;;;;;4951952;29;20474;-72
2022/01/19 12:19:44;;;;;;;20.77;8.05;;;6.00;89.20;;;;;;4953717;29;20155;-72
2022/01/19 12:22:44;;;;;;;17.65;6.68;;;6.10;87.40;;;;;;4964961;28;20103;-73
2022/01/19 12:25:13;;;;;;;16.00;7.55;;;6.00;90.10;;;;;;4928855;29;20036;-73
2022/01/19 12:27:50;;;;;;;13.93;5.45;;;6.20;90.20;;;;;;4946294;29;20493;-72
2022/01/19 12:30:19;;;;;;;16.33;6.47;;;6.20;90.40;;;;;;4934126;29;20031;-73
2022/01/19 12:32:54;;;;;;;14.60;6.63;;;6.20;89.70;;;;;;4925124;29;20036;-71
2022/01/19 12:35:22;;;;;;;15.68;5.78;;;6.30;89.30;;;;;;4928656;29;20035;-73
2022/01/19 12:37:57;;;;;;;19.55;6.88;;;6.30;87.40;;;;;;4931230;29;20059;-72
2022/01/19 12:40:24;;;;;;;16.50;6.97;;;6.20;87.90;;;;;;4932469;29;20036;-73
2022/01/19 12:43:02;;;;;;;14.73;6.53;;;6.20;87.70;;;;;;4946956;29;20119;-73
2022/01/19 12:45:47;;;;;;;16.67;6.93;;;6.20;89.40;;;;;;4939344;29;20110;-72
2022/01/19 12:48:31;;;;;;;17.52;6.25;;;6.20;87.90;;;;;;4932455;29;20035;-70
2022/01/19 12:50:56;;;;;;;18.75;6.85;;;6.20;86.40;;;;;;4932137;29;20058;-71
2022/01/19 12:53:25;;;;;;;19.40;6.28;;;6.20;86.30;;;;;;4932456;29;20071;-70
2022/01/19 12:56:00;;;;;;;17.30;6.43;;;6.20;86.70;;;;;;4932200;29;20052;-70
2022/01/19 12:58:35;;;;;;;22.17;7.00;;;6.30;87.40;;;;;;4931220;29;20139;-73
2022/01/19 13:01:06;;;;;;;18.45;6.03;;;6.30;87.90;;;;;;4931727;29;20439;-73
2022/01/19 13:03:40;;;;;;;12.15;6.10;;;6.20;86.80;;;;;;4936113;29;20054;-73
2022/01/19 13:06:09;;;;;;;15.23;5.47;;;6.30;85.70;;;;;;4932302;29;20439;-72
2022/01/19 13:08:37;;;;;;;12.32;6.50;;;6.20;85.40;;;;;;4932037;29;20035;-72
2022/01/19 13:11:18;;;;;;;10.02;4.18;;;6.20;86.20;;;;;;4932060;29;20079;-71
2022/01/19 13:13:56;;;;;;;10.88;5.82;;;6.20;82.10;;;;;;4931417;29;20047;-70
2022/01/19 13:16:28;;;;;;;15.07;5.82;;;6.20;83.10;;;;;;4930329;29;20462;-72
2022/01/19 13:19:00;;;;;;;21.08;6.78;;;6.20;84.40;;;;;;4932076;29;20054;-72
2022/01/19 13:21:27;;;;;;;21.20;8.00;;;6.30;84.60;;;;;;4939116;29;20118;-72
2022/01/19 13:24:13;;;;;;;15.82;6.50;;;6.30;84.70;;;;;;4953966;29;20039;-72
2022/01/19 13:26:57;;;;;;;21.92;8.02;;;6.20;83.50;;;;;;4953200;29;20145;-72
2022/01/19 13:29:25;;;;;;;19.48;8.40;;;6.10;82.90;;;;;;4953307;29;20045;-72
2022/01/19 13:32:03;;;;;;;20.23;7.82;;;6.10;83.60;;;;;;4957282;29;20090;-72
2022/01/19 13:34:48;;;;;;;19.92;7.40;;;6.10;84.30;;;;;;4956229;28;20160;-73
2022/01/19 13:37:14;;;;;;;21.85;9.10;;;6.10;83.70;;;;;;4957574;29;20023;-73
2022/01/19 13:39:40;;;;;;;18.85;8.85;;;6.10;86.20;;;;;;4957610;29;20032;-73
2022/01/19 13:42:07;;;;;;;22.40;9.73;;;6.10;84.80;;;;;;4960623;29;20064;-72
2022/01/19 13:44:36;;;;;;;16.35;7.57;;;6.10;86.20;;;;;;4957171;29;20405;-73
2022/01/19 13:47:05;;;;;;;22.13;8.35;;;6.10;85.30;;;;;;4954416;29;20087;-73
2022/01/19 13:49:31;;;;;;;30.45;9.63;;;6.10;85.30;;;;;;4953953;29;20481;-71
2022/01/19 13:51:57;;;;;;;32.70;12.82;;;6.10;83.90;;;;;;4960361;29;20036;-71
2022/01/19 13:54:25;;;;;;;23.67;11.15;;;6.10;84.80;;;;;;4956767;29;20034;-72
2022/01/19 13:56:59;;;;;;;18.45;8.73;;;6.00;83.80;;;;;;4954338;29;20023;-73
2022/01/19 13:59:25;;;;;;;20.08;7.90;;;6.00;83.90;;;;;;4954632;29;20066;-72
2022/01/19 14:02:02;;;;;;;24.95;9.75;;;6.00;86.00;;;;;;4954649;29;20051;-71
2022/01/19 14:04:34;;;;;;;22.67;10.45;;;6.00;84.50;;;;;;4954826;29;20023;-73
2022/01/19 14:07:16;;;;;;;20.50;9.10;;;6.00;84.20;;;;;;4954663;29;20107;-72
2022/01/19 14:09:47;;;;;;;19.08;8.77;;;6.00;83.70;;;;;;4953847;29;20445;-73
2022/01/19 14:12:18;;;;;;;23.35;10.50;;;5.80;84.20;;;;;;4949827;29;20031;-72
2022/01/19 14:15:00;;;;;;;20.85;9.52;;;5.90;85.30;;;;;;4954548;29;20123;-72
2022/01/19 14:17:34;;;;;;;19.73;8.77;;;5.90;84.70;;;;;;4955551;29;20030;-72
2022/01/19 14:20:04;;;;;;;25.30;9.80;;;5.80;84.40;;;;;;4957591;29;20051;-72
2022/01/19 14:22:33;;;;;;;24.48;12.32;;;5.80;84.40;;;;;;4936510;29;20029;-72
2022/01/19 14:25:00;;;;;;;24.15;12.32;;;5.80;84.60;;;;;;4954083;29;20123;-71
2022/01/19 14:27:31;;;;;;;25.35;14.43;;;5.70;84.60;;;;;;4953936;29;20042;-72
2022/01/19 14:30:06;;;;;;;32.80;17.77;;;5.70;84.20;;;;;;4952084;29;20460;-73
2022/01/19 14:33:09;;;;;;;30.65;15.82;;;5.70;85.30;;;;;;4954268;29;20027;-71